Time;durP1;ratioP1;P1;durP2;ratioP2;P2;SDS_P1;SDS_P2;PMS_P1;PMS_P2;Temp;Humidity;BMP_temperature;BMP_pressure;BME280_temperature;BME280_humidity;BME280_pressure;Samples;Min_cycle;Max_cycle;Signal;HPM_P1;HPM_P2
2022/04/22 00:01:05;;;;;;;3.15;2.95;;;;;;;;;;5097747;28;20203;-56
2022/04/22 00:03:32;;;;;;;2.97;2.78;;;;;;;;;;5097295;28;20211;-56
2022/04/22 00:06:00;;;;;;;3.30;3.08;;;;;;;;;;5097785;28;20211;-56
2022/04/22 00:08:27;;;;;;;3.20;3.00;;;;;;;;;;5097196;28;20223;-56
2022/04/22 00:13:40;;;;;;;3.58;3.28;;;;;;;;;;5097458;28;20340;-56
2022/04/22 00:16:09;;;;;;;3.53;3.25;;;;;;;;;;5098073;28;20207;-56
2022/04/22 00:18:36;;;;;;;3.10;2.90;;;;;;;;;;5097871;28;20200;-56
2022/04/22 00:21:04;;;;;;;3.40;3.10;;;;;;;;;;5097494;28;20211;-56
2022/04/22 00:23:32;;;;;;;2.90;2.70;;;;;;;;;;5097660;28;20270;-56
2022/04/22 00:25:59;;;;;;;3.05;2.85;;;;;;;;;;5097523;28;20615;-56
2022/04/22 00:28:27;;;;;;;3.45;3.25;;;;;;;;;;5096533;28;20302;-56
2022/04/22 00:30:54;;;;;;;3.10;2.90;;;;;;;;;;5097615;28;20203;-56
2022/04/22 00:33:23;;;;;;;3.03;2.83;;;;;;;;;;5092949;28;20223;-56
2022/04/22 00:35:50;;;;;;;3.60;3.30;;;;;;;;;;5076678;28;20205;-56
2022/04/22 00:38:18;;;;;;;2.90;2.70;;;;;;;;;;5085395;28;20511;-57
2022/04/22 00:40:45;;;;;;;3.30;3.10;;;;;;;;;;5083210;28;20419;-57
2022/04/22 00:43:17;;;;;;;2.90;2.70;;;;;;;;;;5094191;28;20196;-56
2022/04/22 00:45:44;;;;;;;3.05;2.85;;;;;;;;;;5097068;28;20204;-56
2022/04/22 00:48:12;;;;;;;3.28;3.08;;;;;;;;;;5092485;28;20216;-56
2022/04/22 00:50:41;;;;;;;3.20;3.00;;;;;;;;;;5076844;28;20282;-56
2022/04/22 00:53:09;;;;;;;3.08;2.88;;;;;;;;;;5076563;28;20231;-56
2022/04/22 00:55:38;;;;;;;2.90;2.70;;;;;;;;;;5077126;28;20211;-56
2022/04/22 00:58:06;;;;;;;3.03;2.83;;;;;;;;;;5076482;28;20196;-56
2022/04/22 01:00:33;;;;;;;3.00;2.80;;;;;;;;;;5077027;28;20196;-56
2022/04/22 01:03:01;;;;;;;3.40;3.20;;;;;;;;;;5078159;28;20579;-56
2022/04/22 01:11:01;;;;;;;3.22;3.03;;;;;;;;;;5076392;28;20210;-56
2022/04/22 01:13:29;;;;;;;3.22;3.03;;;;;;;;;;5093948;28;20195;-57
2022/04/22 01:15:57;;;;;;;2.95;2.75;;;;;;;;;;5096349;28;20200;-56
2022/04/22 01:18:25;;;;;;;2.90;2.70;;;;;;;;;;5082046;28;20196;-56
2022/04/22 01:20:52;;;;;;;3.00;2.80;;;;;;;;;;5077351;28;20215;-56
2022/04/22 01:23:21;;;;;;;3.13;2.92;;;;;;;;;;5076839;28;20197;-56
2022/04/22 01:25:49;;;;;;;3.08;2.88;;;;;;;;;;5076848;28;20215;-56
2022/04/22 01:28:17;;;;;;;3.17;2.97;;;;;;;;;;5076686;28;20216;-56
2022/04/22 01:30:44;;;;;;;3.15;2.95;;;;;;;;;;5076753;28;20214;-56
2022/04/22 01:33:12;;;;;;;2.78;2.58;;;;;;;;;;5080661;28;20210;-56
2022/04/22 01:35:39;;;;;;;3.08;2.88;;;;;;;;;;5096324;28;20553;-57
2022/04/22 01:38:07;;;;;;;3.00;2.80;;;;;;;;;;5088842;28;20509;-56
2022/04/22 01:40:36;;;;;;;3.05;2.85;;;;;;;;;;5084042;28;20581;-56
2022/04/22 01:43:04;;;;;;;2.85;2.65;;;;;;;;;;5090713;28;20200;-56
2022/04/22 01:45:32;;;;;;;3.00;2.80;;;;;;;;;;5077250;28;20200;-56
2022/04/22 01:48:00;;;;;;;3.05;2.85;;;;;;;;;;5096104;28;20575;-57
2022/04/22 01:50:28;;;;;;;2.88;2.67;;;;;;;;;;5096825;28;20457;-56
2022/04/22 01:52:56;;;;;;;3.13;2.90;;;;;;;;;;5095567;28;20238;-56
2022/04/22 01:55:23;;;;;;;3.10;2.90;;;;;;;;;;5076325;28;20204;-57
2022/04/22 01:57:53;;;;;;;3.13;2.92;;;;;;;;;;5076883;28;20201;-56
2022/04/22 02:00:20;;;;;;;2.55;2.35;;;;;;;;;;5082922;28;20206;-56
2022/04/22 02:02:48;;;;;;;3.22;3.03;;;;;;;;;;5096609;28;20587;-56
2022/04/22 02:05:17;;;;;;;3.13;2.92;;;;;;;;;;5096350;28;20246;-56
2022/04/22 02:07:45;;;;;;;3.03;2.83;;;;;;;;;;5096650;28;20227;-56
2022/04/22 02:10:13;;;;;;;3.28;3.00;;;;;;;;;;5097704;28;20230;-56
2022/04/22 02:12:41;;;;;;;2.95;2.75;;;;;;;;;;5092366;28;20464;-56
2022/04/22 02:15:14;;;;;;;3.03;2.83;;;;;;;;;;5100585;28;20203;-56
2022/04/22 02:17:42;;;;;;;3.22;3.03;;;;;;;;;;5086424;28;20196;-56
2022/04/22 02:20:11;;;;;;;2.90;2.70;;;;;;;;;;5079896;28;20244;-57
2022/04/22 02:22:38;;;;;;;2.72;2.53;;;;;;;;;;5080368;28;20392;-56
2022/04/22 02:25:06;;;;;;;3.15;2.95;;;;;;;;;;5080210;28;20200;-56
2022/04/22 02:30:21;;;;;;;2.70;2.50;;;;;;;;;;5079642;28;20191;-56
2022/04/22 02:32:48;;;;;;;3.25;3.05;;;;;;;;;;5080205;28;20219;-56
2022/04/22 02:35:16;;;;;;;3.30;3.10;;;;;;;;;;5079383;28;20615;-56
2022/04/22 02:37:43;;;;;;;3.10;2.88;;;;;;;;;;5082811;28;20200;-56
2022/04/22 02:40:11;;;;;;;3.10;2.90;;;;;;;;;;5095651;28;20204;-56
2022/04/22 02:45:46;;;;;;;3.22;3.03;;;;;;;;;;5080193;28;20596;-57
2022/04/22 02:48:13;;;;;;;3.13;2.92;;;;;;;;;;5079321;28;20216;-57
2022/04/22 02:50:41;;;;;;;3.08;2.88;;;;;;;;;;5079328;28;20205;-56
2022/04/22 02:53:08;;;;;;;2.70;2.50;;;;;;;;;;5079083;28;20236;-56
2022/04/22 02:55:38;;;;;;;2.97;2.78;;;;;;;;;;5085517;28;20253;-56
2022/04/22 02:58:05;;;;;;;3.10;2.90;;;;;;;;;;5097300;28;20590;-57
2022/04/22 03:00:33;;;;;;;2.90;2.70;;;;;;;;;;5099697;28;20203;-56
2022/04/22 03:03:03;;;;;;;2.90;2.70;;;;;;;;;;5099665;28;20778;-57
2022/04/22 03:05:31;;;;;;;3.03;2.83;;;;;;;;;;5099323;28;20310;-56
2022/04/22 03:08:00;;;;;;;3.00;2.80;;;;;;;;;;5093394;28;20216;-56
2022/04/22 03:10:28;;;;;;;3.00;2.80;;;;;;;;;;5079287;28;20213;-57
2022/04/22 03:12:55;;;;;;;3.10;2.90;;;;;;;;;;5078912;28;20201;-56
2022/04/22 03:15:23;;;;;;;3.10;2.90;;;;;;;;;;5078878;28;20230;-57
2022/04/22 03:17:51;;;;;;;3.30;3.10;;;;;;;;;;5092701;28;20486;-56
2022/04/22 03:20:20;;;;;;;2.92;2.72;;;;;;;;;;5069962;28;20322;-56
2022/04/22 03:22:48;;;;;;;3.20;3.00;;;;;;;;;;5079130;28;20204;-57
2022/04/22 03:25:17;;;;;;;3.03;2.83;;;;;;;;;;5097723;28;20202;-56
2022/04/22 03:27:45;;;;;;;3.13;2.92;;;;;;;;;;5098227;28;20208;-56
2022/04/22 03:30:13;;;;;;;2.97;2.78;;;;;;;;;;5098901;28;20229;-56
2022/04/22 03:32:41;;;;;;;3.30;3.10;;;;;;;;;;5091350;28;20209;-56
2022/04/22 03:35:09;;;;;;;3.17;2.97;;;;;;;;;;5078462;28;20220;-56
2022/04/22 03:37:38;;;;;;;3.28;3.08;;;;;;;;;;5079782;28;20219;-56
2022/04/22 03:40:05;;;;;;;3.03;2.83;;;;;;;;;;5095290;28;20196;-57
2022/04/22 03:42:33;;;;;;;2.95;2.75;;;;;;;;;;5078131;28;20209;-57
2022/04/22 03:45:00;;;;;;;3.30;3.00;;;;;;;;;;5077608;28;20200;-56
2022/04/22 03:47:28;;;;;;;3.28;3.08;;;;;;;;;;5087366;28;20202;-56
2022/04/22 03:49:56;;;;;;;3.10;2.90;;;;;;;;;;5097831;28;20284;-56
2022/04/22 03:52:23;;;;;;;3.25;3.05;;;;;;;;;;5097389;28;20292;-56
2022/04/22 03:54:52;;;;;;;3.10;2.90;;;;;;;;;;5097630;28;20647;-56
2022/04/22 04:00:05;;;;;;;3.00;2.80;;;;;;;;;;5084275;28;20552;-56
2022/04/22 04:02:34;;;;;;;3.20;3.00;;;;;;;;;;5097739;28;20204;-56
2022/04/22 04:05:02;;;;;;;3.10;2.90;;;;;;;;;;5086343;28;20297;-56
2022/04/22 04:07:30;;;;;;;3.42;3.20;;;;;;;;;;5077354;28;20208;-56
2022/04/22 04:18:14;;;;;;;3.60;3.28;;;;;;;;;;5096266;28;20223;-56
2022/04/22 04:23:26;;;;;;;3.40;3.17;;;;;;;;;;5095958;28;20194;-56
2022/04/22 04:25:55;;;;;;;3.70;3.40;;;;;;;;;;5097242;28;20207;-56
2022/04/22 04:28:23;;;;;;;3.40;3.20;;;;;;;;;;5096875;28;20226;-56
2022/04/22 04:30:50;;;;;;;3.70;3.40;;;;;;;;;;5096643;28;20209;-56
2022/04/22 04:33:18;;;;;;;3.63;3.35;;;;;;;;;;5095867;28;20199;-56
2022/04/22 04:35:47;;;;;;;3.50;3.20;;;;;;;;;;5097033;28;20221;-56
2022/04/22 04:38:14;;;;;;;3.38;3.17;;;;;;;;;;5090433;28;20216;-56
2022/04/22 04:40:42;;;;;;;3.58;3.30;;;;;;;;;;5086204;28;20207;-56
2022/04/22 04:43:11;;;;;;;3.67;3.38;;;;;;;;;;5079450;28;20645;-56
2022/04/22 04:45:39;;;;;;;3.50;3.20;;;;;;;;;;5081454;28;20227;-56
2022/04/22 04:48:07;;;;;;;3.70;3.40;;;;;;;;;;5097113;28;20206;-56
2022/04/22 04:50:35;;;;;;;3.60;3.40;;;;;;;;;;5087972;28;20204;-57
2022/04/22 04:53:02;;;;;;;3.40;3.10;;;;;;;;;;5076789;28;20324;-56
2022/04/22 04:55:30;;;;;;;3.50;3.20;;;;;;;;;;5076609;28;20204;-56
2022/04/22 04:57:58;;;;;;;3.80;3.50;;;;;;;;;;5076969;28;20200;-56
2022/04/22 05:00:28;;;;;;;3.50;3.30;;;;;;;;;;5076231;28;20204;-56
2022/04/22 05:02:56;;;;;;;3.70;3.40;;;;;;;;;;5076362;28;20197;-56
2022/04/22 05:05:23;;;;;;;3.83;3.53;;;;;;;;;;5076626;28;20204;-56
2022/04/22 05:07:53;;;;;;;3.67;3.38;;;;;;;;;;5083934;28;20208;-56
2022/04/22 05:10:21;;;;;;;3.95;3.65;;;;;;;;;;5096287;28;20631;-57
2022/04/22 05:12:49;;;;;;;3.58;3.38;;;;;;;;;;5097096;28;20568;-57
2022/04/22 05:15:17;;;;;;;3.80;3.50;;;;;;;;;;5096384;28;20265;-56
2022/04/22 05:17:47;;;;;;;3.30;3.10;;;;;;;;;;5096198;28;20637;-57
2022/04/22 05:20:15;;;;;;;3.78;3.50;;;;;;;;;;5090464;28;20285;-57
2022/04/22 05:22:43;;;;;;;3.92;3.63;;;;;;;;;;5093345;28;20211;-57
2022/04/22 05:25:11;;;;;;;3.40;3.20;;;;;;;;;;5096882;28;20203;-56
2022/04/22 05:27:39;;;;;;;3.90;3.60;;;;;;;;;;5095216;28;20199;-57
2022/04/22 05:32:50;;;;;;;3.60;3.40;;;;;;;;;;5046837;28;22167;-57
2022/04/22 05:35:19;;;;;;;3.47;3.28;;;;;;;;;;5096035;28;20264;-57
2022/04/22 05:37:48;;;;;;;3.63;3.40;;;;;;;;;;5090292;28;20552;-57
2022/04/22 05:40:16;;;;;;;3.92;3.63;;;;;;;;;;5080377;28;20257;-56
2022/04/22 05:42:44;;;;;;;4.00;3.70;;;;;;;;;;5093732;28;20208;-57
2022/04/22 05:45:12;;;;;;;3.85;3.55;;;;;;;;;;5077441;28;20214;-57
2022/04/22 05:47:40;;;;;;;4.07;3.78;;;;;;;;;;5087663;28;20202;-57
2022/04/22 05:50:10;;;;;;;4.10;3.80;;;;;;;;;;5086875;28;20224;-57
2022/04/22 05:52:39;;;;;;;4.00;3.70;;;;;;;;;;5094658;28;20310;-57
2022/04/22 05:55:08;;;;;;;3.88;3.58;;;;;;;;;;5087078;28;20196;-56
2022/04/22 05:57:37;;;;;;;3.72;3.50;;;;;;;;;;5083259;28;20203;-57
2022/04/22 06:00:06;;;;;;;3.90;3.60;;;;;;;;;;5098407;28;20511;-57
2022/04/22 06:02:33;;;;;;;4.25;3.95;;;;;;;;;;5099677;28;20250;-57
2022/04/22 06:05:01;;;;;;;4.20;3.90;;;;;;;;;;5098288;28;20597;-57
2022/04/22 06:07:32;;;;;;;4.05;3.75;;;;;;;;;;5099093;28;20496;-56
2022/04/22 06:12:45;;;;;;;3.83;3.53;;;;;;;;;;5098279;28;20638;-56
2022/04/22 06:15:13;;;;;;;4.22;3.92;;;;;;;;;;5098792;28;20204;-56
2022/04/22 06:17:41;;;;;;;3.95;3.63;;;;;;;;;;5097134;28;20628;-56
2022/04/22 06:20:09;;;;;;;4.40;4.10;;;;;;;;;;5098156;28;20459;-57
2022/04/22 06:22:38;;;;;;;4.07;3.78;;;;;;;;;;5096871;28;20211;-57
2022/04/22 06:25:06;;;;;;;3.83;3.53;;;;;;;;;;5098672;28;20249;-56
2022/04/22 06:27:35;;;;;;;4.25;3.85;;;;;;;;;;5097880;28;20602;-56
2022/04/22 06:30:06;;;;;;;4.00;3.70;;;;;;;;;;5097983;28;20644;-56
2022/04/22 06:32:34;;;;;;;4.13;3.83;;;;;;;;;;5094863;28;20541;-56
2022/04/22 06:35:01;;;;;;;4.18;3.88;;;;;;;;;;5077917;28;20218;-57
2022/04/22 06:37:33;;;;;;;4.65;4.25;;;;;;;;;;5081201;28;20296;-56
2022/04/22 06:48:14;;;;;;;4.30;3.88;;;;;;;;;;5092902;28;20581;-57
2022/04/22 06:50:41;;;;;;;5.13;4.13;;;;;;;;;;5096553;28;20367;-57
2022/04/22 06:53:10;;;;;;;4.55;4.18;;;;;;;;;;5089528;28;20216;-57
2022/04/22 06:55:40;;;;;;;4.40;4.03;;;;;;;;;;5073573;28;20197;-56
2022/04/22 06:58:10;;;;;;;4.35;4.03;;;;;;;;;;5075953;28;20196;-56
2022/04/22 07:00:38;;;;;;;4.25;3.85;;;;;;;;;;5075562;28;20200;-56
2022/04/22 07:03:06;;;;;;;4.30;3.90;;;;;;;;;;5075927;28;20196;-56
2022/04/22 07:05:34;;;;;;;4.90;4.50;;;;;;;;;;5075948;28;20207;-57
2022/04/22 07:08:02;;;;;;;4.20;3.80;;;;;;;;;;5083775;28;20207;-57
2022/04/22 07:10:30;;;;;;;4.53;4.22;;;;;;;;;;5081687;28;20228;-56
2022/04/22 07:13:00;;;;;;;4.30;3.90;;;;;;;;;;5076219;28;20208;-56
2022/04/22 07:15:28;;;;;;;4.72;4.38;;;;;;;;;;5074396;28;20455;-57
2022/04/22 07:17:56;;;;;;;5.00;4.40;;;;;;;;;;5074656;28;20284;-57
2022/04/22 07:20:24;;;;;;;4.40;4.00;;;;;;;;;;5074824;28;20262;-57
2022/04/22 07:22:53;;;;;;;4.38;4.00;;;;;;;;;;5074795;28;20227;-57
2022/04/22 07:25:21;;;;;;;4.47;4.15;;;;;;;;;;5082600;28;20282;-56
2022/04/22 07:27:49;;;;;;;4.93;4.50;;;;;;;;;;5094335;28;20206;-56
2022/04/22 07:30:19;;;;;;;4.93;4.53;;;;;;;;;;5097212;28;20306;-56
2022/04/22 07:32:48;;;;;;;4.63;4.32;;;;;;;;;;5097066;28;20298;-56
2022/04/22 07:35:16;;;;;;;4.88;4.47;;;;;;;;;;5097266;28;20208;-56
2022/04/22 07:37:44;;;;;;;4.72;4.32;;;;;;;;;;5087429;28;20223;-56
2022/04/22 07:40:12;;;;;;;4.30;4.00;;;;;;;;;;5096071;28;20530;-56
2022/04/22 07:42:42;;;;;;;4.50;4.10;;;;;;;;;;5080103;28;20204;-56
2022/04/22 07:47:56;;;;;;;4.20;3.90;;;;;;;;;;5087948;28;20190;-56
2022/04/22 07:50:25;;;;;;;4.68;4.28;;;;;;;;;;5091786;28;20306;-56
2022/04/22 07:52:52;;;;;;;4.55;4.05;;;;;;;;;;5085558;28;20251;-56
2022/04/22 07:55:20;;;;;;;4.88;4.13;;;;;;;;;;5091973;28;20196;-56
2022/04/22 07:57:48;;;;;;;4.43;4.05;;;;;;;;;;5093585;28;20200;-57
2022/04/22 08:00:17;;;;;;;4.30;3.88;;;;;;;;;;5084653;28;20737;-57
2022/04/22 08:02:45;;;;;;;4.40;3.97;;;;;;;;;;5096874;28;20597;-56
2022/04/22 08:05:14;;;;;;;4.35;3.97;;;;;;;;;;5096672;28;20203;-56
2022/04/22 08:07:41;;;;;;;4.43;4.00;;;;;;;;;;5095870;28;20207;-57
2022/04/22 08:10:09;;;;;;;4.78;4.38;;;;;;;;;;5094923;28;20463;-57
2022/04/22 08:12:36;;;;;;;4.30;4.00;;;;;;;;;;5096019;28;20200;-56
2022/04/22 08:15:04;;;;;;;4.78;4.38;;;;;;;;;;5095755;28;20613;-57
2022/04/22 08:17:37;;;;;;;4.28;3.90;;;;;;;;;;5094797;28;20635;-57
2022/04/22 08:20:05;;;;;;;4.25;3.95;;;;;;;;;;5096052;28;20196;-57
2022/04/22 08:22:37;;;;;;;4.90;3.95;;;;;;;;;;5075054;28;20626;-56
2022/04/22 08:25:07;;;;;;;4.30;4.00;;;;;;;;;;5055180;28;20218;-56
2022/04/22 08:27:34;;;;;;;4.18;3.70;;;;;;;;;;5055482;28;20205;-56
2022/04/22 08:30:02;;;;;;;4.28;3.88;;;;;;;;;;5054940;28;20320;-57
2022/04/22 08:32:29;;;;;;;3.83;3.53;;;;;;;;;;5053588;28;20262;-56
2022/04/22 08:34:57;;;;;;;4.22;3.92;;;;;;;;;;5054132;28;20716;-56
2022/04/22 08:37:25;;;;;;;4.43;4.03;;;;;;;;;;5053376;28;20370;-56
2022/04/22 08:39:55;;;;;;;4.55;4.15;;;;;;;;;;5072790;28;20200;-56
2022/04/22 08:42:24;;;;;;;3.80;3.50;;;;;;;;;;5086006;28;20267;-55
2022/04/22 08:44:53;;;;;;;4.65;4.05;;;;;;;;;;5095455;28;20204;-57
2022/04/22 08:50:12;;;;;;;4.72;4.32;;;;;;;;;;5056890;28;20272;-56
2022/04/22 08:52:41;;;;;;;4.40;4.00;;;;;;;;;;5074386;28;20254;-56
2022/04/22 08:55:12;;;;;;;4.10;3.72;;;;;;;;;;5090506;28;20636;-57
2022/04/22 08:57:41;;;;;;;4.88;4.38;;;;;;;;;;5085912;28;20207;-57
2022/04/22 09:00:09;;;;;;;4.30;3.95;;;;;;;;;;5078772;28;20197;-57
2022/04/22 09:02:38;;;;;;;4.40;4.00;;;;;;;;;;5075074;28;20620;-57
2022/04/22 09:05:08;;;;;;;4.25;3.78;;;;;;;;;;5074905;28;20261;-57
2022/04/22 09:07:36;;;;;;;3.97;3.67;;;;;;;;;;5078005;28;20311;-57
2022/04/22 09:10:03;;;;;;;3.67;3.38;;;;;;;;;;5095161;28;20211;-57
2022/04/22 09:12:33;;;;;;;4.28;3.85;;;;;;;;;;5095031;28;20204;-57
2022/04/22 09:15:01;;;;;;;4.50;4.03;;;;;;;;;;5094827;28;20206;-57
2022/04/22 09:17:29;;;;;;;4.38;3.97;;;;;;;;;;5095544;28;20265;-57
2022/04/22 09:19:58;;;;;;;5.00;4.50;;;;;;;;;;5095359;28;20200;-56
2022/04/22 09:22:25;;;;;;;4.25;3.85;;;;;;;;;;5092251;28;20719;-57
2022/04/22 09:24:53;;;;;;;4.50;3.95;;;;;;;;;;5091226;28;20203;-57
2022/04/22 09:27:21;;;;;;;4.32;3.92;;;;;;;;;;5090079;28;20301;-57
2022/04/22 09:29:54;;;;;;;4.10;3.70;;;;;;;;;;5078631;28;20223;-56
2022/04/22 09:32:25;;;;;;;5.43;3.90;;;;;;;;;;5092227;28;20260;-56
2022/04/22 09:34:52;;;;;;;4.45;4.15;;;;;;;;;;5093589;28;20203;-56
2022/04/22 09:42:51;;;;;;;4.15;3.70;;;;;;;;;;5063226;28;20199;-58
2022/04/22 09:45:20;;;;;;;4.68;4.28;;;;;;;;;;5081991;28;20188;-56
2022/04/22 09:48:00;;;;;;;4.32;3.88;;;;;;;;;;5092118;28;20206;-57
2022/04/22 09:50:41;;;;;;;4.63;4.15;;;;;;;;;;5091863;28;20223;-56
2022/04/22 09:53:10;;;;;;;4.43;4.03;;;;;;;;;;5092334;28;20588;-57
2022/04/22 09:55:38;;;;;;;4.93;3.83;;;;;;;;;;5092191;28;20208;-56
2022/04/22 09:58:09;;;;;;;4.00;3.70;;;;;;;;;;5088508;28;20540;-57
2022/04/22 10:00:37;;;;;;;4.40;4.00;;;;;;;;;;5084272;28;20199;-56
2022/04/22 10:03:05;;;;;;;4.20;3.80;;;;;;;;;;5092870;28;20210;-56
2022/04/22 10:05:32;;;;;;;4.40;4.00;;;;;;;;;;5092325;28;20438;-56
2022/04/22 10:08:01;;;;;;;4.03;3.72;;;;;;;;;;5091737;28;20211;-56
2022/04/22 10:10:30;;;;;;;4.30;3.90;;;;;;;;;;5091098;28;20255;-57
2022/04/22 10:12:58;;;;;;;4.00;3.70;;;;;;;;;;5090939;28;20195;-57
2022/04/22 10:15:29;;;;;;;3.83;3.53;;;;;;;;;;5093153;28;20208;-56
2022/04/22 10:17:59;;;;;;;3.95;3.65;;;;;;;;;;5092950;28;20537;-56
2022/04/22 10:20:26;;;;;;;3.70;3.40;;;;;;;;;;5072656;28;20196;-57
2022/04/22 10:22:54;;;;;;;3.80;3.50;;;;;;;;;;5072591;28;20474;-57
2022/04/22 10:25:22;;;;;;;4.32;3.95;;;;;;;;;;5071391;28;20205;-57
2022/04/22 10:27:50;;;;;;;3.92;3.63;;;;;;;;;;5073488;28;20212;-57
2022/04/22 10:30:17;;;;;;;4.10;3.80;;;;;;;;;;5075215;28;20219;-57
2022/04/22 10:32:46;;;;;;;4.30;3.90;;;;;;;;;;5095348;28;20573;-57
2022/04/22 10:35:15;;;;;;;4.10;3.80;;;;;;;;;;5096026;28;20200;-56
2022/04/22 10:37:43;;;;;;;3.85;3.55;;;;;;;;;;5089943;28;20200;-56
2022/04/22 10:40:19;;;;;;;3.80;3.50;;;;;;;;;;5075372;28;20200;-57
2022/04/22 10:42:47;;;;;;;4.55;4.15;;;;;;;;;;5076942;28;20246;-57
2022/04/22 10:47:59;;;;;;;4.00;3.60;;;;;;;;;;5087487;28;20196;-56
2022/04/22 10:50:30;;;;;;;3.83;3.53;;;;;;;;;;5074412;28;20400;-57
2022/04/22 10:53:01;;;;;;;3.67;3.38;;;;;;;;;;5074601;28;20223;-56
2022/04/22 10:55:30;;;;;;;3.58;3.28;;;;;;;;;;5074465;28;20689;-57
2022/04/22 10:58:16;;;;;;;4.20;3.80;;;;;;;;;;5082953;28;20250;-57
2022/04/22 11:00:44;;;;;;;3.78;3.47;;;;;;;;;;5092455;28;20200;-56
2022/04/22 11:03:15;;;;;;;3.60;3.30;;;;;;;;;;5075547;28;20192;-57
2022/04/22 11:05:56;;;;;;;3.63;3.33;;;;;;;;;;5073781;28;20594;-56
2022/04/22 11:08:31;;;;;;;3.67;3.38;;;;;;;;;;5083925;28;20499;-57
2022/04/22 11:11:13;;;;;;;3.95;3.65;;;;;;;;;;5094607;28;20415;-56
2022/04/22 11:13:42;;;;;;;3.75;3.45;;;;;;;;;;5094270;28;20474;-57
2022/04/22 11:16:10;;;;;;;3.78;3.47;;;;;;;;;;5095567;28;20297;-57
2022/04/22 11:18:39;;;;;;;4.10;3.80;;;;;;;;;;5094103;28;20428;-57
2022/04/22 11:21:15;;;;;;;3.72;3.42;;;;;;;;;;5088196;28;20203;-57
2022/04/22 11:23:44;;;;;;;3.78;3.47;;;;;;;;;;5085886;28;20203;-57
2022/04/22 11:26:13;;;;;;;3.58;3.28;;;;;;;;;;5094430;28;20470;-57
2022/04/22 11:28:41;;;;;;;3.67;3.38;;;;;;;;;;5093909;28;20191;-57
2022/04/22 11:31:10;;;;;;;3.65;3.35;;;;;;;;;;5093656;28;20226;-57
2022/04/22 11:33:55;;;;;;;3.65;3.45;;;;;;;;;;5072962;28;20232;-56
2022/04/22 11:36:24;;;;;;;3.85;3.58;;;;;;;;;;5088597;28;20203;-56
2022/04/22 11:38:52;;;;;;;3.40;3.10;;;;;;;;;;5079862;28;20200;-58
2022/04/22 11:41:20;;;;;;;3.30;3.03;;;;;;;;;;5088357;28;20207;-57
2022/04/22 11:43:48;;;;;;;3.25;3.05;;;;;;;;;;5093834;28;20196;-57
2022/04/22 11:46:16;;;;;;;3.22;3.00;;;;;;;;;;5094409;28;20600;-57
2022/04/22 11:48:50;;;;;;;3.70;3.40;;;;;;;;;;5082756;28;20196;-58
2022/04/22 11:51:18;;;;;;;3.45;3.15;;;;;;;;;;5073710;28;20224;-57
2022/04/22 11:53:54;;;;;;;3.53;3.30;;;;;;;;;;5054467;28;20209;-57
2022/04/22 11:56:22;;;;;;;3.28;3.08;;;;;;;;;;5054238;28;20276;-57
2022/04/22 11:58:56;;;;;;;3.50;3.20;;;;;;;;;;5063066;28;20200;-57
2022/04/22 12:06:57;;;;;;;3.20;3.00;;;;;;;;;;5073542;28;20218;-57
2022/04/22 12:09:29;;;;;;;3.35;3.05;;;;;;;;;;5057105;28;20200;-57
2022/04/22 12:12:00;;;;;;;3.30;3.10;;;;;;;;;;5054582;28;20239;-57
2022/04/22 12:14:30;;;;;;;3.20;3.00;;;;;;;;;;5053879;28;20208;-57
2022/04/22 12:16:58;;;;;;;2.92;2.72;;;;;;;;;;5066659;28;20624;-57
2022/04/22 12:19:26;;;;;;;2.92;2.70;;;;;;;;;;5073838;28;20204;-57
2022/04/22 12:21:54;;;;;;;3.35;3.15;;;;;;;;;;5071572;28;20231;-57
2022/04/22 12:24:22;;;;;;;2.90;2.70;;;;;;;;;;5073939;28;20204;-57
2022/04/22 12:26:51;;;;;;;3.60;3.30;;;;;;;;;;5071834;28;20505;-57
2022/04/22 12:29:19;;;;;;;3.05;2.85;;;;;;;;;;5072236;28;20299;-58
2022/04/22 12:31:46;;;;;;;3.60;3.28;;;;;;;;;;5070664;28;20655;-57
2022/04/22 12:34:14;;;;;;;3.22;3.03;;;;;;;;;;5057523;28;20518;-57
2022/04/22 12:36:55;;;;;;;3.38;3.17;;;;;;;;;;5069194;28;20224;-57
2022/04/22 12:39:33;;;;;;;3.40;3.20;;;;;;;;;;5053177;28;20601;-57
2022/04/22 12:42:02;;;;;;;3.75;3.45;;;;;;;;;;5063252;28;20215;-57
2022/04/22 12:44:30;;;;;;;3.30;3.10;;;;;;;;;;5070455;28;20203;-57
2022/04/22 12:52:34;;;;;;;2.97;2.78;;;;;;;;;;5053758;28;20231;-58
2022/04/22 12:55:03;;;;;;;3.33;3.13;;;;;;;;;;5091067;28;20322;-57
2022/04/22 12:57:33;;;;;;;3.10;2.90;;;;;;;;;;5091455;28;20195;-57
2022/04/22 13:00:00;;;;;;;3.15;2.95;;;;;;;;;;5111757;28;20290;-57
2022/04/22 13:02:29;;;;;;;3.53;3.22;;;;;;;;;;5111223;28;20207;-57
2022/04/22 13:04:57;;;;;;;3.38;3.08;;;;;;;;;;5107232;28;20643;-56
2022/04/22 13:07:25;;;;;;;3.35;3.15;;;;;;;;;;5093099;28;20208;-57
2022/04/22 13:09:53;;;;;;;3.17;2.97;;;;;;;;;;5113737;28;20203;-58
2022/04/22 13:12:20;;;;;;;3.60;3.30;;;;;;;;;;5112353;28;20221;-58
2022/04/22 13:14:50;;;;;;;3.38;3.08;;;;;;;;;;5110504;28;20195;-57
2022/04/22 13:17:21;;;;;;;5.65;3.45;;;;;;;;;;5106513;28;20191;-57
2022/04/22 13:19:49;;;;;;;3.70;3.40;;;;;;;;;;5091983;28;20211;-57
2022/04/22 13:22:16;;;;;;;3.75;3.45;;;;;;;;;;5092535;28;20210;-58
2022/04/22 13:24:45;;;;;;;3.58;3.28;;;;;;;;;;5107629;28;20482;-57
2022/04/22 13:27:16;;;;;;;3.45;3.25;;;;;;;;;;5111596;28;20248;-57
2022/04/22 13:29:43;;;;;;;3.63;3.42;;;;;;;;;;5100231;28;20604;-57
2022/04/22 13:32:12;;;;;;;3.42;3.13;;;;;;;;;;5091344;28;20253;-57
2022/04/22 13:34:39;;;;;;;4.65;4.10;;;;;;;;;;5091620;28;20520;-57
2022/04/22 13:37:07;;;;;;;3.63;3.33;;;;;;;;;;5091968;28;20218;-57
2022/04/22 13:39:35;;;;;;;3.80;3.50;;;;;;;;;;5098587;28;20195;-57
2022/04/22 13:42:02;;;;;;;3.83;3.53;;;;;;;;;;5112199;28;20478;-58
2022/04/22 13:52:45;;;;;;;4.10;3.80;;;;;;;;;;5111785;28;20238;-57
2022/04/22 13:55:13;;;;;;;3.85;3.42;;;;;;;;;;5112179;28;20591;-57
2022/04/22 13:57:40;;;;;;;3.92;3.63;;;;;;;;;;5111156;28;20195;-57
2022/04/22 14:00:10;;;;;;;3.60;3.40;;;;;;;;;;5099633;28;20199;-57
2022/04/22 14:02:39;;;;;;;3.60;3.30;;;;;;;;;;5112091;28;20199;-57
2022/04/22 14:05:07;;;;;;;3.70;3.40;;;;;;;;;;5112509;28;20213;-57
2022/04/22 14:07:34;;;;;;;4.28;3.90;;;;;;;;;;5114945;28;20202;-57
2022/04/22 14:10:02;;;;;;;3.90;3.55;;;;;;;;;;5116423;28;20210;-57
2022/04/22 14:12:30;;;;;;;4.03;3.72;;;;;;;;;;5114306;28;20231;-57
2022/04/22 14:14:57;;;;;;;3.72;3.42;;;;;;;;;;5114708;28;20576;-57
2022/04/22 14:17:25;;;;;;;3.45;3.22;;;;;;;;;;5099047;28;20191;-57
2022/04/22 14:19:54;;;;;;;4.10;3.80;;;;;;;;;;5093780;28;20208;-57
2022/04/22 14:22:21;;;;;;;3.75;3.45;;;;;;;;;;5093635;28;20207;-57
2022/04/22 14:24:48;;;;;;;3.83;3.53;;;;;;;;;;5096827;28;20312;-57
2022/04/22 14:27:16;;;;;;;4.20;3.90;;;;;;;;;;5095779;28;20273;-57
2022/04/22 14:29:44;;;;;;;3.90;3.60;;;;;;;;;;5113376;28;20203;-57
2022/04/22 14:32:12;;;;;;;3.97;3.67;;;;;;;;;;5117341;28;20284;-57
2022/04/22 14:34:39;;;;;;;3.72;3.42;;;;;;;;;;5075768;28;20234;-57
2022/04/22 14:37:08;;;;;;;3.55;3.25;;;;;;;;;;5101055;28;20203;-57
2022/04/22 14:39:35;;;;;;;3.80;3.50;;;;;;;;;;5101030;28;20569;-58
2022/04/22 14:42:03;;;;;;;3.88;3.58;;;;;;;;;;5115059;28;20199;-57
2022/04/22 14:44:30;;;;;;;4.10;3.80;;;;;;;;;;5113674;28;20195;-57
2022/04/22 14:46:59;;;;;;;4.10;3.70;;;;;;;;;;5115034;28;20238;-57
2022/04/22 14:49:26;;;;;;;3.67;3.38;;;;;;;;;;5097555;28;20204;-57
2022/04/22 14:51:54;;;;;;;3.58;3.33;;;;;;;;;;5093167;28;20228;-57
2022/04/22 14:54:23;;;;;;;3.92;3.63;;;;;;;;;;5092539;28;20264;-57
2022/04/22 14:56:50;;;;;;;3.60;3.40;;;;;;;;;;5095212;28;20208;-56
2022/04/22 14:59:19;;;;;;;3.88;3.60;;;;;;;;;;5109415;28;20355;-57
2022/04/22 15:01:46;;;;;;;3.53;3.22;;;;;;;;;;5114019;28;20260;-57
2022/04/22 15:04:14;;;;;;;3.85;3.55;;;;;;;;;;5114139;28;20588;-57
2022/04/22 15:06:41;;;;;;;3.55;3.35;;;;;;;;;;5106773;28;20203;-57
2022/04/22 15:09:09;;;;;;;3.60;3.30;;;;;;;;;;5103874;28;20195;-57
2022/04/22 15:11:38;;;;;;;3.65;3.38;;;;;;;;;;5113963;28;20219;-57
2022/04/22 15:14:06;;;;;;;3.97;3.67;;;;;;;;;;5114133;28;20203;-57
2022/04/22 15:16:33;;;;;;;3.53;3.30;;;;;;;;;;5114441;28;20544;-57
2022/04/22 15:24:31;;;;;;;3.50;3.20;;;;;;;;;;5115502;28;20202;-57
2022/04/22 15:27:01;;;;;;;3.35;3.15;;;;;;;;;;5114582;28;20198;-57
2022/04/22 15:29:28;;;;;;;3.55;3.25;;;;;;;;;;5115424;28;20209;-57
2022/04/22 15:31:56;;;;;;;3.20;3.00;;;;;;;;;;5114469;28;20238;-57
2022/04/22 15:34:23;;;;;;;3.50;3.20;;;;;;;;;;5114778;28;20198;-57
2022/04/22 15:36:50;;;;;;;3.35;3.15;;;;;;;;;;5109745;28;20474;-57
2022/04/22 15:39:20;;;;;;;3.13;2.92;;;;;;;;;;5096670;28;20211;-58
2022/04/22 15:41:47;;;;;;;3.42;3.13;;;;;;;;;;5102429;28;20256;-57
2022/04/22 15:44:25;;;;;;;3.35;3.15;;;;;;;;;;5114600;28;20209;-57
2022/04/22 15:46:52;;;;;;;3.38;3.10;;;;;;;;;;5101016;28;20328;-58
2022/04/22 15:49:19;;;;;;;3.75;3.47;;;;;;;;;;5093867;28;20593;-57
2022/04/22 15:51:47;;;;;;;3.08;2.88;;;;;;;;;;5107274;28;20222;-57
2022/04/22 15:54:14;;;;;;;3.25;3.05;;;;;;;;;;5113951;28;20199;-57
2022/04/22 15:56:42;;;;;;;3.13;2.92;;;;;;;;;;5113673;28;20691;-57
2022/04/22 15:59:10;;;;;;;3.53;3.22;;;;;;;;;;5108387;28;20439;-58
2022/04/22 16:01:41;;;;;;;3.38;3.17;;;;;;;;;;5113796;28;20571;-57
2022/04/22 16:04:10;;;;;;;3.47;3.15;;;;;;;;;;5108102;28;20192;-56
2022/04/22 16:06:40;;;;;;;3.10;2.90;;;;;;;;;;5093735;28;20200;-56
2022/04/22 16:09:07;;;;;;;3.50;3.25;;;;;;;;;;5093367;28;20548;-57
2022/04/22 16:17:07;;;;;;;3.80;3.30;;;;;;;;;;5104641;28;20186;-57